Avon, Mississippi
Current Conditions -  °F | °C
As of 1:53 AM on Monday 24 Nov 2014 (Local Time) from KGLH Reporting Station
Clear Clear  
Wind Chill: 16°   Ceiling: Unl
Heat Index: 16°   Visibility: 10mi
Dew Point: 11°   Wind: 15mph
Humidity: 72%   Direction: 230°SW
Pressure: 29.58"   Gusts: NA
Location:  33.23°N, 91.05°W
Report Text: KGLH 240753Z AUTO 23013KT 10SM CLR 16/11 A2958 RMK AO2 SLP024 T01610111 $
Loading
Personal Weather Stations






























Interactive Weather Map New forecast layout! Learn more

10-Day Weather Forecast

Advertisements
Track Severe Weather on mobile